sensor_id;sensor_type;location;lat;lon;timestamp;P1;durP1;ratioP1;P2;durP2;ratioP2
52642;SDS011;38531;53.296;6.614;2023-09-18T00:00:15;445.33;;;204.83;;
52642;SDS011;38531;53.296;6.614;2023-09-18T00:02:41;450.87;;;203.53;;
52642;SDS011;38531;53.296;6.614;2023-09-18T00:05:10;458.23;;;204.10;;
52642;SDS011;38531;53.296;6.614;2023-09-18T00:07:41;457.00;;;204.53;;
52642;SDS011;38531;53.296;6.614;2023-09-18T00:10:10;452.90;;;202.37;;
52642;SDS011;38531;53.296;6.614;2023-09-18T00:12:37;450.53;;;203.43;;
52642;SDS011;38531;53.296;6.614;2023-09-18T00:15:06;450.17;;;203.27;;
52642;SDS011;38531;53.296;6.614;2023-09-18T00:17:34;450.17;;;204.63;;
52642;SDS011;38531;53.296;6.614;2023-09-18T00:20:00;449.90;;;204.20;;
52642;SDS011;38531;53.296;6.614;2023-09-18T00:22:28;448.63;;;203.63;;
52642;SDS011;38531;53.296;6.614;2023-09-18T00:24:54;448.97;;;203.87;;
52642;SDS011;38531;53.296;6.614;2023-09-18T00:27:20;448.90;;;202.90;;
52642;SDS011;38531;53.296;6.614;2023-09-18T00:29:46;450.17;;;204.80;;
52642;SDS011;38531;53.296;6.614;2023-09-18T00:32:12;445.90;;;203.73;;
52642;SDS011;38531;53.296;6.614;2023-09-18T00:34:38;443.73;;;203.20;;
52642;SDS011;38531;53.296;6.614;2023-09-18T00:37:04;442.53;;;202.13;;
52642;SDS011;38531;53.296;6.614;2023-09-18T00:39:35;450.07;;;203.43;;
52642;SDS011;38531;53.296;6.614;2023-09-18T00:42:01;453.90;;;203.57;;
52642;SDS011;38531;53.296;6.614;2023-09-18T00:44:30;451.60;;;203.33;;
52642;SDS011;38531;53.296;6.614;2023-09-18T00:46:56;450.43;;;201.77;;
52642;SDS011;38531;53.296;6.614;2023-09-18T00:49:24;451.73;;;201.17;;
52642;SDS011;38531;53.296;6.614;2023-09-18T00:51:50;452.37;;;203.20;;
52642;SDS011;38531;53.296;6.614;2023-09-18T00:54:17;449.93;;;203.87;;
52642;SDS011;38531;53.296;6.614;2023-09-18T00:56:45;447.03;;;202.87;;
52642;SDS011;38531;53.296;6.614;2023-09-18T00:59:16;449.00;;;203.90;;
52642;SDS011;38531;53.296;6.614;2023-09-18T01:01:42;452.23;;;203.80;;
52642;SDS011;38531;53.296;6.614;2023-09-18T01:04:08;451.10;;;201.87;;
52642;SDS011;38531;53.296;6.614;2023-09-18T01:06:35;453.10;;;203.40;;
52642;SDS011;38531;53.296;6.614;2023-09-18T01:09:02;449.93;;;201.50;;
52642;SDS011;38531;53.296;6.614;2023-09-18T01:14:13;452.50;;;203.00;;
52642;SDS011;38531;53.296;6.614;2023-09-18T01:17:09;447.83;;;204.63;;
52642;SDS011;38531;53.296;6.614;2023-09-18T01:19:42;449.00;;;204.90;;
52642;SDS011;38531;53.296;6.614;2023-09-18T01:22:15;447.08;;;204.32;;
52642;SDS011;38531;53.296;6.614;2023-09-18T01:24:42;446.23;;;204.67;;
52642;SDS011;38531;53.296;6.614;2023-09-18T01:27:13;444.40;;;202.17;;
52642;SDS011;38531;53.296;6.614;2023-09-18T01:29:40;444.20;;;203.63;;
52642;SDS011;38531;53.296;6.614;2023-09-18T01:32:06;440.50;;;201.73;;
52642;SDS011;38531;53.296;6.614;2023-09-18T01:34:39;440.70;;;202.27;;
52642;SDS011;38531;53.296;6.614;2023-09-18T01:37:11;441.93;;;203.17;;
52642;SDS011;38531;53.296;6.614;2023-09-18T01:39:39;439.23;;;202.93;;
52642;SDS011;38531;53.296;6.614;2023-09-18T01:42:06;441.63;;;202.60;;
52642;SDS011;38531;53.296;6.614;2023-09-18T01:44:35;439.20;;;202.17;;
52642;SDS011;38531;53.296;6.614;2023-09-18T01:47:08;440.33;;;203.33;;
52642;SDS011;38531;53.296;6.614;2023-09-18T01:49:36;440.30;;;201.77;;
52642;SDS011;38531;53.296;6.614;2023-09-18T01:52:04;441.00;;;202.70;;
52642;SDS011;38531;53.296;6.614;2023-09-18T01:54:31;443.27;;;204.10;;
52642;SDS011;38531;53.296;6.614;2023-09-18T01:56:57;442.23;;;201.27;;
52642;SDS011;38531;53.296;6.614;2023-09-18T01:59:24;443.80;;;203.83;;
52642;SDS011;38531;53.296;6.614;2023-09-18T02:01:51;441.37;;;202.60;;
52642;SDS011;38531;53.296;6.614;2023-09-18T02:04:17;440.47;;;203.10;;
52642;SDS011;38531;53.296;6.614;2023-09-18T02:06:47;441.37;;;203.30;;
52642;SDS011;38531;53.296;6.614;2023-09-18T02:09:19;442.60;;;203.17;;
52642;SDS011;38531;53.296;6.614;2023-09-18T02:11:46;443.43;;;203.30;;
52642;SDS011;38531;53.296;6.614;2023-09-18T02:14:13;444.07;;;203.13;;
52642;SDS011;38531;53.296;6.614;2023-09-18T02:16:40;445.10;;;203.73;;
52642;SDS011;38531;53.296;6.614;2023-09-18T02:19:07;447.03;;;204.00;;
52642;SDS011;38531;53.296;6.614;2023-09-18T02:21:34;445.27;;;203.20;;
52642;SDS011;38531;53.296;6.614;2023-09-18T02:24:00;438.17;;;201.60;;
52642;SDS011;38531;53.296;6.614;2023-09-18T02:26:27;439.20;;;202.37;;
52642;SDS011;38531;53.296;6.614;2023-09-18T02:28:53;440.07;;;203.10;;
52642;SDS011;38531;53.296;6.614;2023-09-18T02:31:23;437.70;;;201.33;;
52642;SDS011;38531;53.296;6.614;2023-09-18T02:33:52;443.30;;;202.63;;
52642;SDS011;38531;53.296;6.614;2023-09-18T02:36:17;444.93;;;203.00;;
52642;SDS011;38531;53.296;6.614;2023-09-18T02:38:43;440.63;;;203.30;;
52642;SDS011;38531;53.296;6.614;2023-09-18T02:41:09;442.93;;;202.17;;
52642;SDS011;38531;53.296;6.614;2023-09-18T02:43:35;442.33;;;201.57;;
52642;SDS011;38531;53.296;6.614;2023-09-18T02:46:05;442.93;;;203.33;;
52642;SDS011;38531;53.296;6.614;2023-09-18T02:48:31;440.63;;;202.00;;
52642;SDS011;38531;53.296;6.614;2023-09-18T02:51:00;443.43;;;202.27;;
52642;SDS011;38531;53.296;6.614;2023-09-18T02:53:27;444.23;;;202.13;;
52642;SDS011;38531;53.296;6.614;2023-09-18T02:55:56;445.47;;;203.77;;
52642;SDS011;38531;53.296;6.614;2023-09-18T02:58:23;443.37;;;203.33;;
52642;SDS011;38531;53.296;6.614;2023-09-18T03:00:51;444.23;;;202.30;;
52642;SDS011;38531;53.296;6.614;2023-09-18T03:03:18;443.93;;;202.97;;
52642;SDS011;38531;53.296;6.614;2023-09-18T03:05:45;443.07;;;202.63;;
52642;SDS011;38531;53.296;6.614;2023-09-18T03:08:11;442.70;;;203.00;;
52642;SDS011;38531;53.296;6.614;2023-09-18T03:10:38;442.53;;;202.50;;
52642;SDS011;38531;53.296;6.614;2023-09-18T03:13:05;443.13;;;203.50;;
52642;SDS011;38531;53.296;6.614;2023-09-18T03:15:36;441.50;;;202.87;;
52642;SDS011;38531;53.296;6.614;2023-09-18T03:18:02;444.77;;;203.53;;
52642;SDS011;38531;53.296;6.614;2023-09-18T03:20:32;443.90;;;203.00;;
52642;SDS011;38531;53.296;6.614;2023-09-18T03:22:58;444.60;;;202.37;;
52642;SDS011;38531;53.296;6.614;2023-09-18T03:25:25;446.70;;;203.33;;
52642;SDS011;38531;53.296;6.614;2023-09-18T03:27:52;445.53;;;202.50;;
52642;SDS011;38531;53.296;6.614;2023-09-18T03:30:19;447.00;;;202.87;;
52642;SDS011;38531;53.296;6.614;2023-09-18T03:32:46;448.07;;;204.07;;
52642;SDS011;38531;53.296;6.614;2023-09-18T03:35:13;445.90;;;203.23;;
52642;SDS011;38531;53.296;6.614;2023-09-18T03:37:50;445.27;;;202.25;;
52642;SDS011;38531;53.296;6.614;2023-09-18T03:40:17;450.17;;;205.20;;
52642;SDS011;38531;53.296;6.614;2023-09-18T03:42:46;450.53;;;204.27;;
52642;SDS011;38531;53.296;6.614;2023-09-18T03:45:12;450.57;;;204.80;;
52642;SDS011;38531;53.296;6.614;2023-09-18T03:47:39;450.00;;;204.33;;
52642;SDS011;38531;53.296;6.614;2023-09-18T03:50:07;447.17;;;202.53;;
52642;SDS011;38531;53.296;6.614;2023-09-18T03:52:37;446.13;;;201.57;;
52642;SDS011;38531;53.296;6.614;2023-09-18T03:55:04;447.73;;;203.37;;
52642;SDS011;38531;53.296;6.614;2023-09-18T03:57:31;444.83;;;202.20;;
52642;SDS011;38531;53.296;6.614;2023-09-18T03:59:56;446.60;;;203.73;;
52642;SDS011;38531;53.296;6.614;2023-09-18T04:02:30;446.50;;;203.17;;
52642;SDS011;38531;53.296;6.614;2023-09-18T04:04:56;445.57;;;202.37;;
52642;SDS011;38531;53.296;6.614;2023-09-18T04:07:21;449.33;;;204.20;;
52642;SDS011;38531;53.296;6.614;2023-09-18T04:09:47;448.80;;;203.87;;
52642;SDS011;38531;53.296;6.614;2023-09-18T04:12:13;450.90;;;203.90;;
52642;SDS011;38531;53.296;6.614;2023-09-18T04:14:39;449.47;;;203.77;;
52642;SDS011;38531;53.296;6.614;2023-09-18T04:17:05;450.40;;;203.30;;
52642;SDS011;38531;53.296;6.614;2023-09-18T04:19:31;447.83;;;204.20;;
52642;SDS011;38531;53.296;6.614;2023-09-18T04:21:57;445.30;;;203.27;;
52642;SDS011;38531;53.296;6.614;2023-09-18T04:24:23;447.50;;;201.87;;
52642;SDS011;38531;53.296;6.614;2023-09-18T04:26:50;447.57;;;202.80;;
52642;SDS011;38531;53.296;6.614;2023-09-18T04:29:16;455.73;;;204.20;;
52642;SDS011;38531;53.296;6.614;2023-09-18T04:31:43;455.57;;;204.43;;
52642;SDS011;38531;53.296;6.614;2023-09-18T04:34:09;451.23;;;204.33;;
52642;SDS011;38531;53.296;6.614;2023-09-18T04:36:35;448.50;;;204.37;;
52642;SDS011;38531;53.296;6.614;2023-09-18T04:39:02;448.97;;;203.63;;
52642;SDS011;38531;53.296;6.614;2023-09-18T04:41:30;449.10;;;203.33;;
52642;SDS011;38531;53.296;6.614;2023-09-18T04:43:56;448.63;;;203.80;;
52642;SDS011;38531;53.296;6.614;2023-09-18T04:46:22;448.93;;;204.07;;
52642;SDS011;38531;53.296;6.614;2023-09-18T04:48:52;447.77;;;203.90;;
52642;SDS011;38531;53.296;6.614;2023-09-18T04:51:18;446.07;;;203.90;;
52642;SDS011;38531;53.296;6.614;2023-09-18T04:53:43;442.63;;;201.57;;
52642;SDS011;38531;53.296;6.614;2023-09-18T04:56:09;445.53;;;203.53;;
52642;SDS011;38531;53.296;6.614;2023-09-18T04:58:35;445.00;;;202.67;;
52642;SDS011;38531;53.296;6.614;2023-09-18T05:01:04;444.00;;;203.17;;
52642;SDS011;38531;53.296;6.614;2023-09-18T05:03:35;441.73;;;201.60;;
52642;SDS011;38531;53.296;6.614;2023-09-18T05:06:01;443.10;;;202.13;;
52642;SDS011;38531;53.296;6.614;2023-09-18T05:08:28;444.20;;;203.00;;
52642;SDS011;38531;53.296;6.614;2023-09-18T05:10:54;444.00;;;203.20;;
52642;SDS011;38531;53.296;6.614;2023-09-18T05:13:20;443.60;;;203.80;;
52642;SDS011;38531;53.296;6.614;2023-09-18T05:15:46;442.50;;;203.70;;
52642;SDS011;38531;53.296;6.614;2023-09-18T05:18:12;443.83;;;202.70;;
52642;SDS011;38531;53.296;6.614;2023-09-18T05:20:39;443.00;;;203.40;;
52642;SDS011;38531;53.296;6.614;2023-09-18T05:23:05;442.77;;;202.83;;
52642;SDS011;38531;53.296;6.614;2023-09-18T05:25:31;442.53;;;202.57;;
52642;SDS011;38531;53.296;6.614;2023-09-18T05:27:58;442.53;;;201.93;;
52642;SDS011;38531;53.296;6.614;2023-09-18T05:32:57;441.37;;;201.77;;
52642;SDS011;38531;53.296;6.614;2023-09-18T05:35:29;441.43;;;203.13;;
52642;SDS011;38531;53.296;6.614;2023-09-18T05:37:59;440.53;;;203.10;;
52642;SDS011;38531;53.296;6.614;2023-09-18T05:40:25;440.73;;;203.03;;
52642;SDS011;38531;53.296;6.614;2023-09-18T05:42:54;440.93;;;204.00;;
52642;SDS011;38531;53.296;6.614;2023-09-18T05:45:23;439.33;;;202.13;;
52642;SDS011;38531;53.296;6.614;2023-09-18T05:47:49;438.90;;;201.83;;
52642;SDS011;38531;53.296;6.614;2023-09-18T05:50:15;437.23;;;201.17;;
52642;SDS011;38531;53.296;6.614;2023-09-18T05:52:48;436.00;;;199.83;;
52642;SDS011;38531;53.296;6.614;2023-09-18T05:55:14;431.80;;;198.53;;
52642;SDS011;38531;53.296;6.614;2023-09-18T05:57:41;434.13;;;199.70;;
52642;SDS011;38531;53.296;6.614;2023-09-18T06:00:07;433.10;;;198.87;;
52642;SDS011;38531;53.296;6.614;2023-09-18T06:02:33;432.00;;;198.53;;
52642;SDS011;38531;53.296;6.614;2023-09-18T06:05:00;430.90;;;197.57;;
52642;SDS011;38531;53.296;6.614;2023-09-18T06:07:28;430.80;;;197.63;;
52642;SDS011;38531;53.296;6.614;2023-09-18T06:09:54;428.60;;;196.13;;
52642;SDS011;38531;53.296;6.614;2023-09-18T06:12:22;424.70;;;194.23;;
52642;SDS011;38531;53.296;6.614;2023-09-18T06:14:48;430.77;;;198.60;;
52642;SDS011;38531;53.296;6.614;2023-09-18T06:17:15;428.43;;;196.43;;
52642;SDS011;38531;53.296;6.614;2023-09-18T06:19:41;428.40;;;196.33;;
52642;SDS011;38531;53.296;6.614;2023-09-18T06:22:08;426.73;;;196.17;;
52642;SDS011;38531;53.296;6.614;2023-09-18T06:24:34;433.83;;;198.70;;
52642;SDS011;38531;53.296;6.614;2023-09-18T06:27:00;431.90;;;198.63;;
52642;SDS011;38531;53.296;6.614;2023-09-18T06:29:30;420.73;;;191.10;;
52642;SDS011;38531;53.296;6.614;2023-09-18T06:31:56;421.83;;;192.17;;
52642;SDS011;38531;53.296;6.614;2023-09-18T06:34:22;418.53;;;189.40;;
52642;SDS011;38531;53.296;6.614;2023-09-18T06:36:48;426.83;;;195.40;;
52642;SDS011;38531;53.296;6.614;2023-09-18T06:39:14;427.23;;;194.97;;
52642;SDS011;38531;53.296;6.614;2023-09-18T06:41:40;410.63;;;187.63;;
52642;SDS011;38531;53.296;6.614;2023-09-18T06:44:06;413.00;;;188.63;;
52642;SDS011;38531;53.296;6.614;2023-09-18T06:46:32;415.57;;;189.53;;
52642;SDS011;38531;53.296;6.614;2023-09-18T06:48:58;418.67;;;190.23;;
52642;SDS011;38531;53.296;6.614;2023-09-18T06:51:25;419.03;;;191.47;;
52642;SDS011;38531;53.296;6.614;2023-09-18T06:53:52;421.33;;;190.80;;
52642;SDS011;38531;53.296;6.614;2023-09-18T06:56:19;419.73;;;191.57;;
52642;SDS011;38531;53.296;6.614;2023-09-18T06:58:45;418.37;;;190.83;;
52642;SDS011;38531;53.296;6.614;2023-09-18T07:01:13;418.73;;;190.90;;
52642;SDS011;38531;53.296;6.614;2023-09-18T07:03:40;424.27;;;192.60;;
52642;SDS011;38531;53.296;6.614;2023-09-18T07:06:06;418.00;;;189.60;;
52642;SDS011;38531;53.296;6.614;2023-09-18T07:08:32;419.93;;;190.10;;
52642;SDS011;38531;53.296;6.614;2023-09-18T07:10:58;419.03;;;189.03;;
52642;SDS011;38531;53.296;6.614;2023-09-18T07:13:24;417.53;;;189.80;;
52642;SDS011;38531;53.296;6.614;2023-09-18T07:15:50;413.77;;;187.83;;
52642;SDS011;38531;53.296;6.614;2023-09-18T07:18:15;418.23;;;189.27;;
52642;SDS011;38531;53.296;6.614;2023-09-18T07:20:43;413.87;;;188.83;;
52642;SDS011;38531;53.296;6.614;2023-09-18T07:23:09;416.27;;;189.60;;
52642;SDS011;38531;53.296;6.614;2023-09-18T07:25:35;424.00;;;192.07;;
52642;SDS011;38531;53.296;6.614;2023-09-18T07:28:06;423.13;;;191.13;;
52642;SDS011;38531;53.296;6.614;2023-09-18T07:30:32;430.67;;;195.07;;
52642;SDS011;38531;53.296;6.614;2023-09-18T07:32:58;423.90;;;191.13;;
52642;SDS011;38531;53.296;6.614;2023-09-18T07:35:25;423.63;;;190.60;;
52642;SDS011;38531;53.296;6.614;2023-09-18T07:37:52;425.03;;;192.23;;
52642;SDS011;38531;53.296;6.614;2023-09-18T07:40:17;425.67;;;191.63;;
52642;SDS011;38531;53.296;6.614;2023-09-18T07:42:43;417.50;;;190.60;;
52642;SDS011;38531;53.296;6.614;2023-09-18T07:45:10;411.47;;;186.30;;
52642;SDS011;38531;53.296;6.614;2023-09-18T07:52:08;423.07;;;192.57;;
52642;SDS011;38531;53.296;6.614;2023-09-18T07:54:34;422.23;;;191.03;;
52642;SDS011;38531;53.296;6.614;2023-09-18T07:57:00;412.03;;;187.10;;
52642;SDS011;38531;53.296;6.614;2023-09-18T07:59:26;410.83;;;187.67;;
52642;SDS011;38531;53.296;6.614;2023-09-18T08:01:55;415.00;;;187.77;;
52642;SDS011;38531;53.296;6.614;2023-09-18T08:04:21;414.20;;;188.23;;
52642;SDS011;38531;53.296;6.614;2023-09-18T08:06:47;412.93;;;186.90;;
52642;SDS011;38531;53.296;6.614;2023-09-18T08:09:12;402.83;;;187.17;;
52642;SDS011;38531;53.296;6.614;2023-09-18T08:11:41;401.67;;;186.43;;
52642;SDS011;38531;53.296;6.614;2023-09-18T08:14:08;402.13;;;186.90;;
52642;SDS011;38531;53.296;6.614;2023-09-18T08:20:18;355.30;;;180.03;;
52642;SDS011;38531;53.296;6.614;2023-09-18T08:22:44;355.60;;;180.23;;
52642;SDS011;38531;53.296;6.614;2023-09-18T08:25:12;355.60;;;179.50;;
52642;SDS011;38531;53.296;6.614;2023-09-18T08:27:41;354.70;;;179.57;;
52642;SDS011;38531;53.296;6.614;2023-09-18T08:30:07;353.83;;;179.97;;
52642;SDS011;38531;53.296;6.614;2023-09-18T08:32:35;352.37;;;179.50;;
52642;SDS011;38531;53.296;6.614;2023-09-18T08:35:05;352.60;;;179.90;;
52642;SDS011;38531;53.296;6.614;2023-09-18T08:37:31;353.20;;;179.70;;
52642;SDS011;38531;53.296;6.614;2023-09-18T08:39:57;353.27;;;179.83;;
52642;SDS011;38531;53.296;6.614;2023-09-18T08:42:24;354.77;;;179.50;;
52642;SDS011;38531;53.296;6.614;2023-09-18T08:44:51;356.17;;;180.73;;
52642;SDS011;38531;53.296;6.614;2023-09-18T08:47:21;356.03;;;180.27;;
52642;SDS011;38531;53.296;6.614;2023-09-18T08:49:48;356.60;;;180.53;;
52642;SDS011;38531;53.296;6.614;2023-09-18T08:52:15;357.23;;;180.77;;
52642;SDS011;38531;53.296;6.614;2023-09-18T08:54:42;357.57;;;179.83;;
52642;SDS011;38531;53.296;6.614;2023-09-18T08:57:09;358.00;;;180.57;;
52642;SDS011;38531;53.296;6.614;2023-09-18T08:59:37;359.63;;;179.80;;
52642;SDS011;38531;53.296;6.614;2023-09-18T09:02:06;358.53;;;179.87;;
52642;SDS011;38531;53.296;6.614;2023-09-18T09:04:32;354.57;;;181.43;;
52642;SDS011;38531;53.296;6.614;2023-09-18T09:06:58;356.70;;;180.20;;
52642;SDS011;38531;53.296;6.614;2023-09-18T09:09:26;355.30;;;181.40;;
52642;SDS011;38531;53.296;6.614;2023-09-18T09:11:53;341.17;;;176.57;;
52642;SDS011;38531;53.296;6.614;2023-09-18T09:14:19;318.40;;;160.53;;
52642;SDS011;38531;53.296;6.614;2023-09-18T09:16:47;333.97;;;178.80;;
52642;SDS011;38531;53.296;6.614;2023-09-18T09:19:16;334.30;;;179.40;;
52642;SDS011;38531;53.296;6.614;2023-09-18T09:21:43;338.37;;;180.40;;
52642;SDS011;38531;53.296;6.614;2023-09-18T09:24:10;340.33;;;179.90;;
52642;SDS011;38531;53.296;6.614;2023-09-18T09:26:42;343.70;;;180.90;;
52642;SDS011;38531;53.296;6.614;2023-09-18T09:29:18;345.57;;;180.67;;
52642;SDS011;38531;53.296;6.614;2023-09-18T09:31:46;346.10;;;180.63;;
52642;SDS011;38531;53.296;6.614;2023-09-18T09:34:26;340.40;;;180.77;;
52642;SDS011;38531;53.296;6.614;2023-09-18T09:37:03;331.67;;;180.67;;
52642;SDS011;38531;53.296;6.614;2023-09-18T09:39:29;332.57;;;181.70;;
52642;SDS011;38531;53.296;6.614;2023-09-18T09:41:56;330.50;;;180.57;;
52642;SDS011;38531;53.296;6.614;2023-09-18T09:44:26;312.00;;;176.30;;
52642;SDS011;38531;53.296;6.614;2023-09-18T09:46:54;300.17;;;172.90;;
52642;SDS011;38531;53.296;6.614;2023-09-18T09:49:22;335.07;;;179.37;;
52642;SDS011;38531;53.296;6.614;2023-09-18T09:51:49;332.27;;;178.47;;
52642;SDS011;38531;53.296;6.614;2023-09-18T09:54:18;332.90;;;178.67;;
52642;SDS011;38531;53.296;6.614;2023-09-18T09:57:06;326.67;;;177.13;;
52642;SDS011;38531;53.296;6.614;2023-09-18T09:59:32;329.83;;;178.50;;
52642;SDS011;38531;53.296;6.614;2023-09-18T10:02:02;331.53;;;178.40;;
52642;SDS011;38531;53.296;6.614;2023-09-18T10:04:29;333.47;;;178.87;;
52642;SDS011;38531;53.296;6.614;2023-09-18T10:07:05;327.23;;;178.63;;
52642;SDS011;38531;53.296;6.614;2023-09-18T10:09:34;328.80;;;178.50;;
52642;SDS011;38531;53.296;6.614;2023-09-18T10:12:00;330.80;;;179.23;;
52642;SDS011;38531;53.296;6.614;2023-09-18T10:14:32;318.20;;;176.63;;
52642;SDS011;38531;53.296;6.614;2023-09-18T10:17:15;311.90;;;174.77;;
52642;SDS011;38531;53.296;6.614;2023-09-18T10:20:02;300.53;;;175.23;;
52642;SDS011;38531;53.296;6.614;2023-09-18T10:22:45;297.50;;;174.40;;
52642;SDS011;38531;53.296;6.614;2023-09-18T10:25:14;279.83;;;170.93;;
52642;SDS011;38531;53.296;6.614;2023-09-18T10:27:47;274.67;;;170.10;;
52642;SDS011;38531;53.296;6.614;2023-09-18T10:30:14;276.30;;;169.30;;
52642;SDS011;38531;53.296;6.614;2023-09-18T10:32:46;276.03;;;170.73;;
52642;SDS011;38531;53.296;6.614;2023-09-18T10:35:13;289.33;;;174.03;;
52642;SDS011;38531;53.296;6.614;2023-09-18T10:37:43;364.10;;;181.30;;
52642;SDS011;38531;53.296;6.614;2023-09-18T10:40:10;395.50;;;183.67;;
52642;SDS011;38531;53.296;6.614;2023-09-18T10:42:40;414.93;;;184.43;;
52642;SDS011;38531;53.296;6.614;2023-09-18T10:45:08;285.80;;;171.40;;
52642;SDS011;38531;53.296;6.614;2023-09-18T10:47:39;299.37;;;174.43;;
52642;SDS011;38531;53.296;6.614;2023-09-18T10:50:08;306.30;;;173.90;;
52642;SDS011;38531;53.296;6.614;2023-09-18T10:52:35;315.63;;;176.00;;
52642;SDS011;38531;53.296;6.614;2023-09-18T10:55:09;348.63;;;178.83;;
52642;SDS011;38531;53.296;6.614;2023-09-18T10:57:45;375.70;;;182.07;;
52642;SDS011;38531;53.296;6.614;2023-09-18T11:00:18;378.70;;;180.30;;
52642;SDS011;38531;53.296;6.614;2023-09-18T11:02:49;383.40;;;183.37;;
52642;SDS011;38531;53.296;6.614;2023-09-18T11:05:27;381.07;;;180.97;;
52642;SDS011;38531;53.296;6.614;2023-09-18T11:10:58;412.53;;;185.63;;
52642;SDS011;38531;53.296;6.614;2023-09-18T11:13:34;356.47;;;181.47;;
52642;SDS011;38531;53.296;6.614;2023-09-18T11:21:28;361.07;;;184.60;;
52642;SDS011;38531;53.296;6.614;2023-09-18T11:29:09;405.53;;;186.30;;
52642;SDS011;38531;53.296;6.614;2023-09-18T11:31:47;418.77;;;190.63;;
52642;SDS011;38531;53.296;6.614;2023-09-18T11:34:24;426.70;;;192.47;;
52642;SDS011;38531;53.296;6.614;2023-09-18T11:36:54;429.93;;;192.40;;
52642;SDS011;38531;53.296;6.614;2023-09-18T11:39:34;430.53;;;192.70;;
52642;SDS011;38531;53.296;6.614;2023-09-18T11:42:11;435.53;;;193.67;;
52642;SDS011;38531;53.296;6.614;2023-09-18T11:44:39;441.80;;;195.87;;
52642;SDS011;38531;53.296;6.614;2023-09-18T11:47:12;460.67;;;199.27;;
52642;SDS011;38531;53.296;6.614;2023-09-18T11:52:23;443.17;;;194.60;;
52642;SDS011;38531;53.296;6.614;2023-09-18T11:54:51;438.93;;;193.87;;
52642;SDS011;38531;53.296;6.614;2023-09-18T11:57:18;444.37;;;194.63;;
52642;SDS011;38531;53.296;6.614;2023-09-18T11:59:47;442.57;;;194.77;;
52642;SDS011;38531;53.296;6.614;2023-09-18T12:02:33;439.90;;;194.33;;
52642;SDS011;38531;53.296;6.614;2023-09-18T12:05:19;447.03;;;196.43;;
52642;SDS011;38531;53.296;6.614;2023-09-18T12:07:45;458.30;;;197.53;;
52642;SDS011;38531;53.296;6.614;2023-09-18T12:10:13;459.67;;;197.33;;
52642;SDS011;38531;53.296;6.614;2023-09-18T12:12:43;463.97;;;200.07;;
52642;SDS011;38531;53.296;6.614;2023-09-18T12:15:12;462.10;;;198.43;;
52642;SDS011;38531;53.296;6.614;2023-09-18T12:17:40;462.97;;;198.93;;
52642;SDS011;38531;53.296;6.614;2023-09-18T12:20:24;465.23;;;199.97;;
52642;SDS011;38531;53.296;6.614;2023-09-18T12:22:50;459.20;;;197.53;;
52642;SDS011;38531;53.296;6.614;2023-09-18T12:25:16;460.00;;;197.57;;
52642;SDS011;38531;53.296;6.614;2023-09-18T12:27:51;462.37;;;198.47;;
52642;SDS011;38531;53.296;6.614;2023-09-18T12:30:24;460.80;;;198.80;;
52642;SDS011;38531;53.296;6.614;2023-09-18T12:32:53;461.97;;;198.73;;
52642;SDS011;38531;53.296;6.614;2023-09-18T12:35:28;455.83;;;194.33;;
52642;SDS011;38531;53.296;6.614;2023-09-18T12:37:56;461.90;;;199.10;;
52642;SDS011;38531;53.296;6.614;2023-09-18T12:40:26;459.33;;;198.50;;
52642;SDS011;38531;53.296;6.614;2023-09-18T12:42:54;465.50;;;200.23;;
52642;SDS011;38531;53.296;6.614;2023-09-18T12:45:22;466.93;;;201.13;;
52642;SDS011;38531;53.296;6.614;2023-09-18T12:47:51;470.67;;;203.00;;
52642;SDS011;38531;53.296;6.614;2023-09-18T12:50:19;471.63;;;204.13;;
52642;SDS011;38531;53.296;6.614;2023-09-18T12:52:45;469.73;;;202.57;;
52642;SDS011;38531;53.296;6.614;2023-09-18T12:55:20;472.30;;;203.37;;
52642;SDS011;38531;53.296;6.614;2023-09-18T12:57:51;469.00;;;202.37;;
52642;SDS011;38531;53.296;6.614;2023-09-18T13:00:18;470.30;;;202.83;;
52642;SDS011;38531;53.296;6.614;2023-09-18T13:02:52;474.08;;;204.25;;
52642;SDS011;38531;53.296;6.614;2023-09-18T13:05:21;460.63;;;199.80;;
52642;SDS011;38531;53.296;6.614;2023-09-18T13:07:51;457.83;;;196.43;;
52642;SDS011;38531;53.296;6.614;2023-09-18T13:10:21;459.80;;;197.80;;
52642;SDS011;38531;53.296;6.614;2023-09-18T13:12:52;463.27;;;198.77;;
52642;SDS011;38531;53.296;6.614;2023-09-18T13:17:55;460.43;;;197.97;;
52642;SDS011;38531;53.296;6.614;2023-09-18T13:20:23;465.10;;;199.40;;
52642;SDS011;38531;53.296;6.614;2023-09-18T13:22:52;467.13;;;199.53;;
52642;SDS011;38531;53.296;6.614;2023-09-18T13:25:19;472.43;;;203.37;;
52642;SDS011;38531;53.296;6.614;2023-09-18T13:27:47;484.60;;;208.83;;
52642;SDS011;38531;53.296;6.614;2023-09-18T13:30:14;480.17;;;206.40;;
52642;SDS011;38531;53.296;6.614;2023-09-18T13:32:46;483.83;;;206.63;;
52642;SDS011;38531;53.296;6.614;2023-09-18T13:35:16;483.20;;;206.83;;
52642;SDS011;38531;53.296;6.614;2023-09-18T13:37:43;467.67;;;199.33;;
52642;SDS011;38531;53.296;6.614;2023-09-18T13:40:09;475.03;;;204.33;;
52642;SDS011;38531;53.296;6.614;2023-09-18T13:42:36;481.70;;;206.43;;
52642;SDS011;38531;53.296;6.614;2023-09-18T13:45:06;474.37;;;204.10;;
52642;SDS011;38531;53.296;6.614;2023-09-18T13:47:33;492.53;;;209.70;;
52642;SDS011;38531;53.296;6.614;2023-09-18T13:50:06;472.50;;;203.20;;
52642;SDS011;38531;53.296;6.614;2023-09-18T13:52:35;474.20;;;204.27;;
52642;SDS011;38531;53.296;6.614;2023-09-18T13:55:02;479.40;;;206.50;;
52642;SDS011;38531;53.296;6.614;2023-09-18T13:57:32;479.53;;;206.77;;
52642;SDS011;38531;53.296;6.614;2023-09-18T13:59:59;477.60;;;205.30;;
52642;SDS011;38531;53.296;6.614;2023-09-18T14:02:25;479.30;;;205.37;;
52642;SDS011;38531;53.296;6.614;2023-09-18T14:04:53;478.40;;;204.03;;
52642;SDS011;38531;53.296;6.614;2023-09-18T14:07:21;484.50;;;205.87;;
52642;SDS011;38531;53.296;6.614;2023-09-18T14:09:47;489.57;;;209.30;;
52642;SDS011;38531;53.296;6.614;2023-09-18T14:12:13;493.73;;;209.13;;
52642;SDS011;38531;53.296;6.614;2023-09-18T14:14:40;495.77;;;209.43;;
52642;SDS011;38531;53.296;6.614;2023-09-18T14:17:07;494.67;;;209.67;;
52642;SDS011;38531;53.296;6.614;2023-09-18T14:19:33;490.27;;;208.60;;
52642;SDS011;38531;53.296;6.614;2023-09-18T14:22:00;471.80;;;201.30;;
52642;SDS011;38531;53.296;6.614;2023-09-18T14:24:29;473.80;;;202.67;;
52642;SDS011;38531;53.296;6.614;2023-09-18T14:26:55;469.80;;;202.13;;
52642;SDS011;38531;53.296;6.614;2023-09-18T14:29:21;466.20;;;199.80;;
52642;SDS011;38531;53.296;6.614;2023-09-18T14:31:50;470.27;;;202.53;;
52642;SDS011;38531;53.296;6.614;2023-09-18T14:34:21;462.23;;;197.30;;